sensor_id;sensor_type;location;lat;lon;timestamp;pressure;altitude;pressure_sealevel;temperature;humidity
51229;BME280;37304;52.216;6.874;2022-07-15T00:02:41;101863.69;;;14.06;100.00
51229;BME280;37304;52.216;6.874;2022-07-15T00:07:42;101869.84;;;14.02;100.00
51229;BME280;37304;52.216;6.874;2022-07-15T00:12:44;101863.03;;;13.91;100.00
51229;BME280;37304;52.216;6.874;2022-07-15T00:17:44;101877.84;;;13.92;100.00
51229;BME280;37304;52.216;6.874;2022-07-15T00:22:45;101866.63;;;13.82;100.00
51229;BME280;37304;52.216;6.874;2022-07-15T00:27:53;101852.75;;;13.79;100.00
51229;BME280;37304;52.216;6.874;2022-07-15T00:32:54;101852.84;;;13.71;100.00
51229;BME280;37304;52.216;6.874;2022-07-15T00:37:54;101863.44;;;13.62;100.00
51229;BME280;37304;52.216;6.874;2022-07-15T00:42:55;101854.78;;;13.57;100.00
51229;BME280;37304;52.216;6.874;2022-07-15T00:47:56;101857.47;;;13.52;100.00
51229;BME280;37304;52.216;6.874;2022-07-15T00:53:04;101856.66;;;13.47;100.00
51229;BME280;37304;52.216;6.874;2022-07-15T00:58:11;101860.19;;;13.41;100.00
51229;BME280;37304;52.216;6.874;2022-07-15T01:03:16;101857.63;;;13.36;100.00
51229;BME280;37304;52.216;6.874;2022-07-15T01:08:17;101863.84;;;13.28;100.00
51229;BME280;37304;52.216;6.874;2022-07-15T01:13:18;101853.44;;;13.23;100.00
51229;BME280;37304;52.216;6.874;2022-07-15T01:18:19;101850.00;;;13.18;100.00
51229;BME280;37304;52.216;6.874;2022-07-15T01:23:20;101852.69;;;13.11;100.00
51229;BME280;37304;52.216;6.874;2022-07-15T01:28:20;101858.78;;;13.09;100.00
51229;BME280;37304;52.216;6.874;2022-07-15T01:33:21;101871.97;;;12.96;100.00
51229;BME280;37304;52.216;6.874;2022-07-15T01:38:21;101873.81;;;12.88;100.00
51229;BME280;37304;52.216;6.874;2022-07-15T01:43:22;101891.25;;;12.83;100.00
51229;BME280;37304;52.216;6.874;2022-07-15T01:48:22;101884.31;;;12.79;100.00
51229;BME280;37304;52.216;6.874;2022-07-15T01:53:41;101883.50;;;12.72;100.00
51229;BME280;37304;52.216;6.874;2022-07-15T01:58:41;101883.56;;;12.66;100.00
51229;BME280;37304;52.216;6.874;2022-07-15T02:03:42;101885.34;;;12.61;100.00
51229;BME280;37304;52.216;6.874;2022-07-15T02:08:42;101876.69;;;12.56;100.00
51229;BME280;37304;52.216;6.874;2022-07-15T02:13:43;101875.84;;;12.52;100.00
51229;BME280;37304;52.216;6.874;2022-07-15T02:18:43;101875.03;;;12.44;100.00
51229;BME280;37304;52.216;6.874;2022-07-15T02:23:43;101873.34;;;12.41;100.00
51229;BME280;37304;52.216;6.874;2022-07-15T02:28:44;101875.16;;;12.28;100.00
51229;BME280;37304;52.216;6.874;2022-07-15T02:33:44;101876.94;;;12.23;100.00
51229;BME280;37304;52.216;6.874;2022-07-15T02:38:45;101870.00;;;12.22;100.00
51229;BME280;37304;52.216;6.874;2022-07-15T02:43:45;101862.22;;;12.19;100.00
51229;BME280;37304;52.216;6.874;2022-07-15T02:48:46;101863.97;;;12.14;100.00
51229;BME280;37304;52.216;6.874;2022-07-15T02:53:46;101871.75;;;12.18;100.00
51229;BME280;37304;52.216;6.874;2022-07-15T02:58:47;101868.28;;;12.19;100.00
51229;BME280;37304;52.216;6.874;2022-07-15T03:03:47;101872.59;;;12.20;100.00
51229;BME280;37304;52.216;6.874;2022-07-15T03:08:47;101877.75;;;12.33;100.00
51229;BME280;37304;52.216;6.874;2022-07-15T03:13:48;101878.53;;;12.43;100.00
51229;BME280;37304;52.216;6.874;2022-07-15T03:18:48;101881.91;;;12.54;100.00
51229;BME280;37304;52.216;6.874;2022-07-15T03:23:48;101882.75;;;12.58;100.00
51229;BME280;37304;52.216;6.874;2022-07-15T03:28:49;101897.47;;;12.70;100.00
51229;BME280;37304;52.216;6.874;2022-07-15T03:33:49;101905.19;;;12.77;100.00
51229;BME280;37304;52.216;6.874;2022-07-15T03:38:50;101909.47;;;12.85;100.00
51229;BME280;37304;52.216;6.874;2022-07-15T03:43:51;101923.34;;;12.90;100.00
51229;BME280;37304;52.216;6.874;2022-07-15T03:48:52;101925.09;;;12.89;100.00
51229;BME280;37304;52.216;6.874;2022-07-15T03:53:52;101922.47;;;12.91;100.00
51229;BME280;37304;52.216;6.874;2022-07-15T03:58:53;101931.19;;;12.88;100.00
51229;BME280;37304;52.216;6.874;2022-07-15T04:03:53;101938.94;;;12.99;100.00
51229;BME280;37304;52.216;6.874;2022-07-15T04:08:54;101944.22;;;12.93;100.00
51229;BME280;37304;52.216;6.874;2022-07-15T04:13:54;101952.88;;;12.96;100.00
51229;BME280;37304;52.216;6.874;2022-07-15T04:18:54;101957.25;;;12.90;100.00
51229;BME280;37304;52.216;6.874;2022-07-15T04:23:55;101956.41;;;12.88;100.00
51229;BME280;37304;52.216;6.874;2022-07-15T04:28:57;101972.84;;;13.02;100.00
51229;BME280;37304;52.216;6.874;2022-07-15T04:33:57;101969.41;;;12.95;100.00
51229;BME280;37304;52.216;6.874;2022-07-15T04:38:58;101971.03;;;13.07;100.00
51229;BME280;37304;52.216;6.874;2022-07-15T04:43:58;101978.81;;;13.12;100.00
51229;BME280;37304;52.216;6.874;2022-07-15T04:48:58;101982.25;;;13.17;100.00
51229;BME280;37304;52.216;6.874;2022-07-15T04:54:17;101985.66;;;13.27;100.00
51229;BME280;37304;52.216;6.874;2022-07-15T04:59:17;101975.09;;;13.36;100.00
51229;BME280;37304;52.216;6.874;2022-07-15T05:04:18;101971.63;;;13.37;100.00
51229;BME280;37304;52.216;6.874;2022-07-15T05:09:18;101970.78;;;13.35;100.00
51229;BME280;37304;52.216;6.874;2022-07-15T05:14:18;101972.44;;;13.46;100.00
51229;BME280;37304;52.216;6.874;2022-07-15T05:19:19;101971.44;;;13.59;100.00
51229;BME280;37304;52.216;6.874;2022-07-15T05:24:19;101973.09;;;13.65;100.00
51229;BME280;37304;52.216;6.874;2022-07-15T05:29:20;101971.25;;;13.75;100.00
51229;BME280;37304;52.216;6.874;2022-07-15T05:34:22;101983.13;;;14.01;100.00
51229;BME280;37304;52.216;6.874;2022-07-15T05:39:23;101984.44;;;14.34;100.00
51229;BME280;37304;52.216;6.874;2022-07-15T05:44:24;101987.09;;;14.31;100.00
51229;BME280;37304;52.216;6.874;2022-07-15T05:49:24;101992.78;;;14.60;100.00
51229;BME280;37304;52.216;6.874;2022-07-15T05:54:25;101992.25;;;14.97;100.00
51229;BME280;37304;52.216;6.874;2022-07-15T05:59:25;101994.50;;;15.17;100.00
51229;BME280;37304;52.216;6.874;2022-07-15T06:04:26;101993.91;;;15.51;100.00
51229;BME280;37304;52.216;6.874;2022-07-15T06:09:27;101990.13;;;15.66;100.00
51229;BME280;37304;52.216;6.874;2022-07-15T06:14:27;101989.91;;;15.77;100.00
51229;BME280;37304;52.216;6.874;2022-07-15T06:19:28;101990.41;;;15.96;100.00
51229;BME280;37304;52.216;6.874;2022-07-15T06:24:29;101997.06;;;16.13;100.00
51229;BME280;37304;52.216;6.874;2022-07-15T06:29:29;101996.06;;;16.19;100.00
51229;BME280;37304;52.216;6.874;2022-07-15T06:34:30;101993.94;;;16.36;100.00
51229;BME280;37304;52.216;6.874;2022-07-15T06:39:30;101988.31;;;16.53;94.25
51229;BME280;37304;52.216;6.874;2022-07-15T06:44:30;101989.03;;;16.60;90.01
51229;BME280;37304;52.216;6.874;2022-07-15T06:49:31;101988.75;;;16.72;88.99
51229;BME280;37304;52.216;6.874;2022-07-15T06:54:31;101995.34;;;16.87;89.26
51229;BME280;37304;52.216;6.874;2022-07-15T06:59:32;101992.22;;;16.73;81.69
51229;BME280;37304;52.216;6.874;2022-07-15T07:04:33;102000.19;;;17.06;76.92
51229;BME280;37304;52.216;6.874;2022-07-15T07:09:33;102001.34;;;17.29;78.32
51229;BME280;37304;52.216;6.874;2022-07-15T07:14:33;102004.81;;;17.31;78.29
51229;BME280;37304;52.216;6.874;2022-07-15T07:19:34;101993.59;;;17.89;76.13
51229;BME280;37304;52.216;6.874;2022-07-15T07:24:34;101999.72;;;18.19;71.47
51229;BME280;37304;52.216;6.874;2022-07-15T07:29:35;101995.97;;;18.28;68.64
51229;BME280;37304;52.216;6.874;2022-07-15T07:34:35;101989.81;;;18.56;69.49
51229;BME280;37304;52.216;6.874;2022-07-15T07:39:35;101996.19;;;18.77;66.96
51229;BME280;37304;52.216;6.874;2022-07-15T07:44:36;101996.00;;;18.55;66.67
51229;BME280;37304;52.216;6.874;2022-07-15T07:49:36;101995.50;;;18.71;64.12
51229;BME280;37304;52.216;6.874;2022-07-15T07:54:37;101993.38;;;18.82;64.01
51229;BME280;37304;52.216;6.874;2022-07-15T07:59:37;102002.75;;;18.91;64.32
51229;BME280;37304;52.216;6.874;2022-07-15T08:04:38;102002.44;;;19.02;63.61
51229;BME280;37304;52.216;6.874;2022-07-15T08:09:40;102003.97;;;19.08;61.35
51229;BME280;37304;52.216;6.874;2022-07-15T08:14:40;102006.00;;;19.26;60.02
51229;BME280;37304;52.216;6.874;2022-07-15T08:19:41;102007.88;;;19.48;59.00
51229;BME280;37304;52.216;6.874;2022-07-15T08:24:42;101995.06;;;19.62;57.69
51229;BME280;37304;52.216;6.874;2022-07-15T08:29:42;101996.22;;;19.54;55.73
51229;BME280;37304;52.216;6.874;2022-07-15T08:34:43;102004.19;;;20.01;58.12
51229;BME280;37304;52.216;6.874;2022-07-15T08:39:43;102000.88;;;20.42;56.68
51229;BME280;37304;52.216;6.874;2022-07-15T08:44:44;102003.25;;;20.71;56.69
51229;BME280;37304;52.216;6.874;2022-07-15T08:49:47;102006.13;;;19.98;55.27
51229;BME280;37304;52.216;6.874;2022-07-15T08:54:48;102005.56;;;20.58;53.82
51229;BME280;37304;52.216;6.874;2022-07-15T08:59:48;102003.09;;;20.53;54.86
51229;BME280;37304;52.216;6.874;2022-07-15T09:05:28;102006.81;;;20.92;52.81
51229;BME280;37304;52.216;6.874;2022-07-15T09:10:49;102009.84;;;20.60;53.59
51229;BME280;37304;52.216;6.874;2022-07-15T09:15:51;102005.63;;;20.99;53.51
51229;BME280;37304;52.216;6.874;2022-07-15T09:20:51;102014.09;;;20.87;53.04
51229;BME280;37304;52.216;6.874;2022-07-15T09:25:52;102002.66;;;20.64;53.45
51229;BME280;37304;52.216;6.874;2022-07-15T09:30:55;102004.97;;;20.72;52.30
51229;BME280;37304;52.216;6.874;2022-07-15T09:36:15;101998.28;;;20.85;54.75
51229;BME280;37304;52.216;6.874;2022-07-15T09:41:36;101999.22;;;20.62;52.22
51229;BME280;37304;52.216;6.874;2022-07-15T09:56:48;101995.59;;;20.87;51.55
51229;BME280;37304;52.216;6.874;2022-07-15T10:01:49;101998.31;;;21.68;52.41
51229;BME280;37304;52.216;6.874;2022-07-15T10:06:52;101995.16;;;22.73;50.51
51229;BME280;37304;52.216;6.874;2022-07-15T10:11:55;101994.09;;;23.46;47.03
51229;BME280;37304;52.216;6.874;2022-07-15T10:22:31;101991.63;;;22.17;47.79
51229;BME280;37304;52.216;6.874;2022-07-15T10:28:05;101991.72;;;21.77;48.95
51229;BME280;37304;52.216;6.874;2022-07-15T10:33:18;101982.94;;;21.95;47.93
51229;BME280;37304;52.216;6.874;2022-07-15T10:38:27;101981.13;;;21.96;48.04
51229;BME280;37304;52.216;6.874;2022-07-15T10:43:49;101983.53;;;22.76;47.02
51229;BME280;37304;52.216;6.874;2022-07-15T10:53:57;101958.50;;;24.63;45.97
51229;BME280;37304;52.216;6.874;2022-07-15T10:59:07;101952.91;;;25.12;42.57
51229;BME280;37304;52.216;6.874;2022-07-15T11:04:29;101942.94;;;24.87;42.97
51229;BME280;37304;52.216;6.874;2022-07-15T11:15:06;101938.00;;;24.18;43.35
51229;BME280;37304;52.216;6.874;2022-07-15T11:20:14;101935.75;;;25.62;43.88
51229;BME280;37304;52.216;6.874;2022-07-15T11:25:25;101926.06;;;26.30;39.06
51229;BME280;37304;52.216;6.874;2022-07-15T11:30:28;101923.66;;;24.98;40.96
51229;BME280;37304;52.216;6.874;2022-07-15T11:35:29;101928.75;;;24.25;43.53
51229;BME280;37304;52.216;6.874;2022-07-15T11:40:31;101935.75;;;23.62;41.93
51229;BME280;37304;52.216;6.874;2022-07-15T11:45:50;101915.78;;;25.25;40.72
51229;BME280;37304;52.216;6.874;2022-07-15T11:50:56;101922.00;;;24.81;40.82
51229;BME280;37304;52.216;6.874;2022-07-15T11:55:59;101931.59;;;24.53;41.55
51229;BME280;37304;52.216;6.874;2022-07-15T12:01:02;101916.69;;;24.20;41.61
51229;BME280;37304;52.216;6.874;2022-07-15T12:06:38;101916.34;;;23.94;43.30
51229;BME280;37304;52.216;6.874;2022-07-15T12:11:33;101906.84;;;23.90;43.84
51229;BME280;37304;52.216;6.874;2022-07-15T12:16:48;101917.63;;;24.49;43.58
51229;BME280;37304;52.216;6.874;2022-07-15T12:21:52;101910.78;;;26.19;40.25
51229;BME280;37304;52.216;6.874;2022-07-15T12:31:58;101915.34;;;24.74;40.45
51229;BME280;37304;52.216;6.874;2022-07-15T12:36:59;101905.03;;;24.22;42.14
51229;BME280;37304;52.216;6.874;2022-07-15T12:42:04;101924.41;;;23.09;42.24
51229;BME280;37304;52.216;6.874;2022-07-15T12:47:04;101917.88;;;23.50;42.54
51229;BME280;37304;52.216;6.874;2022-07-15T12:57:33;101924.03;;;22.99;43.90
51229;BME280;37304;52.216;6.874;2022-07-15T13:03:01;101905.91;;;24.53;45.44
51229;BME280;37304;52.216;6.874;2022-07-15T13:08:01;101907.47;;;24.41;43.23
51229;BME280;37304;52.216;6.874;2022-07-15T13:13:02;101903.50;;;25.08;43.74
51229;BME280;37304;52.216;6.874;2022-07-15T13:18:03;101911.69;;;24.91;43.22
51229;BME280;37304;52.216;6.874;2022-07-15T13:23:03;101904.63;;;24.45;41.20
51229;BME280;37304;52.216;6.874;2022-07-15T13:28:05;101908.66;;;23.89;41.82
51229;BME280;37304;52.216;6.874;2022-07-15T13:33:06;101901.16;;;23.32;42.36
51229;BME280;37304;52.216;6.874;2022-07-15T13:38:06;101909.13;;;23.14;43.00
51229;BME280;37304;52.216;6.874;2022-07-15T13:43:06;101913.31;;;22.67;44.26
51229;BME280;37304;52.216;6.874;2022-07-15T13:48:07;101908.69;;;22.71;44.16
51229;BME280;37304;52.216;6.874;2022-07-15T13:53:07;101904.63;;;22.81;44.89
51229;BME280;37304;52.216;6.874;2022-07-15T13:58:08;101898.97;;;23.72;43.98
51229;BME280;37304;52.216;6.874;2022-07-15T14:03:09;101892.81;;;23.55;44.43
51229;BME280;37304;52.216;6.874;2022-07-15T14:08:09;101890.78;;;25.57;42.85
51229;BME280;37304;52.216;6.874;2022-07-15T14:13:10;101884.06;;;26.06;41.82
51229;BME280;37304;52.216;6.874;2022-07-15T14:18:10;101888.06;;;25.00;41.51
51229;BME280;37304;52.216;6.874;2022-07-15T14:23:11;101893.09;;;24.60;41.07
51229;BME280;37304;52.216;6.874;2022-07-15T14:28:11;101885.59;;;24.52;41.03
51229;BME280;37304;52.216;6.874;2022-07-15T14:33:11;101877.00;;;25.36;40.48
51229;BME280;37304;52.216;6.874;2022-07-15T14:38:12;101875.00;;;25.10;40.83
51229;BME280;37304;52.216;6.874;2022-07-15T14:43:12;101883.00;;;24.81;41.30
51229;BME280;37304;52.216;6.874;2022-07-15T14:48:12;101882.78;;;24.39;41.69
51229;BME280;37304;52.216;6.874;2022-07-15T14:53:13;101881.38;;;24.18;44.10
51229;BME280;37304;52.216;6.874;2022-07-15T14:58:13;101880.28;;;23.74;43.14
51229;BME280;37304;52.216;6.874;2022-07-15T15:03:15;101878.59;;;23.40;43.73
51229;BME280;37304;52.216;6.874;2022-07-15T15:08:16;101875.22;;;23.37;44.52
51229;BME280;37304;52.216;6.874;2022-07-15T15:13:17;101874.16;;;23.23;44.51
51229;BME280;37304;52.216;6.874;2022-07-15T15:18:17;101867.72;;;23.11;44.89
51229;BME280;37304;52.216;6.874;2022-07-15T15:23:17;101869.34;;;23.14;45.68
51229;BME280;37304;52.216;6.874;2022-07-15T15:28:17;101867.97;;;23.07;45.01
51229;BME280;37304;52.216;6.874;2022-07-15T15:33:18;101861.47;;;23.12;45.91
51229;BME280;37304;52.216;6.874;2022-07-15T15:38:18;101851.78;;;23.61;46.49
51229;BME280;37304;52.216;6.874;2022-07-15T15:43:18;101848.88;;;23.34;45.84
51229;BME280;37304;52.216;6.874;2022-07-15T15:48:19;101845.28;;;23.67;45.17
51229;BME280;37304;52.216;6.874;2022-07-15T15:53:19;101837.16;;;23.70;45.36
51229;BME280;37304;52.216;6.874;2022-07-15T15:58:20;101836.16;;;23.56;45.20
51229;BME280;37304;52.216;6.874;2022-07-15T16:03:21;101830.00;;;23.22;44.81
51229;BME280;37304;52.216;6.874;2022-07-15T16:08:22;101826.56;;;22.88;45.63
51229;BME280;37304;52.216;6.874;2022-07-15T16:13:22;101829.06;;;22.74;46.59
51229;BME280;37304;52.216;6.874;2022-07-15T16:18:23;101831.41;;;22.62;46.98
51229;BME280;37304;52.216;6.874;2022-07-15T16:23:23;101819.81;;;22.65;47.36
51229;BME280;37304;52.216;6.874;2022-07-15T16:28:24;101816.63;;;22.58;46.82
51229;BME280;37304;52.216;6.874;2022-07-15T16:33:24;101807.66;;;22.61;47.00
51229;BME280;37304;52.216;6.874;2022-07-15T16:38:25;101811.94;;;22.63;46.99
51229;BME280;37304;52.216;6.874;2022-07-15T16:43:25;101810.38;;;22.42;47.39
51229;BME280;37304;52.216;6.874;2022-07-15T16:48:25;101815.53;;;22.27;47.96
51229;BME280;37304;52.216;6.874;2022-07-15T16:53:26;101804.94;;;22.27;47.90
51229;BME280;37304;52.216;6.874;2022-07-15T16:58:26;101802.28;;;22.27;48.02
51229;BME280;37304;52.216;6.874;2022-07-15T17:03:26;101802.09;;;21.95;48.81
51229;BME280;37304;52.216;6.874;2022-07-15T17:08:27;101798.97;;;21.87;49.86
51229;BME280;37304;52.216;6.874;2022-07-15T17:13:27;101795.59;;;21.65;49.39
51229;BME280;37304;52.216;6.874;2022-07-15T17:18:27;101795.38;;;21.70;49.88
51229;BME280;37304;52.216;6.874;2022-07-15T17:23:28;101794.66;;;21.47;50.03
51229;BME280;37304;52.216;6.874;2022-07-15T17:28:29;101782.66;;;21.40;51.11
51229;BME280;37304;52.216;6.874;2022-07-15T17:33:29;101776.25;;;21.27;51.50
51229;BME280;37304;52.216;6.874;2022-07-15T17:38:30;101784.47;;;21.20;51.32
51229;BME280;37304;52.216;6.874;2022-07-15T17:43:31;101777.38;;;21.02;51.94
51229;BME280;37304;52.216;6.874;2022-07-15T17:48:31;101773.19;;;20.98;52.47
51229;BME280;37304;52.216;6.874;2022-07-15T17:53:32;101774.38;;;20.90;52.41
51229;BME280;37304;52.216;6.874;2022-07-15T17:58:33;101767.50;;;20.86;52.93
51229;BME280;37304;52.216;6.874;2022-07-15T18:03:33;101774.09;;;20.97;53.26
51229;BME280;37304;52.216;6.874;2022-07-15T18:08:34;101769.53;;;21.00;53.60
51229;BME280;37304;52.216;6.874;2022-07-15T18:13:34;101767.88;;;20.98;53.47
51229;BME280;37304;52.216;6.874;2022-07-15T18:18:34;101761.53;;;21.02;54.68
51229;BME280;37304;52.216;6.874;2022-07-15T18:23:35;101771.34;;;20.79;54.70
51229;BME280;37304;52.216;6.874;2022-07-15T18:28:35;101766.72;;;20.84;55.33
51229;BME280;37304;52.216;6.874;2022-07-15T18:33:35;101772.25;;;20.78;54.68
51229;BME280;37304;52.216;6.874;2022-07-15T18:38:36;101764.88;;;20.65;54.50
51229;BME280;37304;52.216;6.874;2022-07-15T18:43:38;101771.22;;;20.61;55.05
51229;BME280;37304;52.216;6.874;2022-07-15T18:48:39;101767.56;;;20.45;55.67
51229;BME280;37304;52.216;6.874;2022-07-15T18:53:40;101756.47;;;20.36;56.65
51229;BME280;37304;52.216;6.874;2022-07-15T18:58:41;101754.38;;;20.24;56.78
51229;BME280;37304;52.216;6.874;2022-07-15T19:03:41;101751.31;;;20.13;58.11
51229;BME280;37304;52.216;6.874;2022-07-15T19:08:42;101752.22;;;20.12;58.44
51229;BME280;37304;52.216;6.874;2022-07-15T19:13:42;101751.69;;;20.03;59.20
51229;BME280;37304;52.216;6.874;2022-07-15T19:18:43;101757.09;;;20.00;59.77
51229;BME280;37304;52.216;6.874;2022-07-15T19:23:44;101745.03;;;19.95;60.10
51229;BME280;37304;52.216;6.874;2022-07-15T19:28:44;101734.72;;;19.88;60.62
51229;BME280;37304;52.216;6.874;2022-07-15T19:33:44;101731.38;;;19.83;61.05
51229;BME280;37304;52.216;6.874;2022-07-15T19:38:45;101737.00;;;19.75;61.91
51229;BME280;37304;52.216;6.874;2022-07-15T19:43:45;101740.47;;;19.76;62.61
51229;BME280;37304;52.216;6.874;2022-07-15T19:48:46;101747.19;;;19.62;62.88
51229;BME280;37304;52.216;6.874;2022-07-15T19:53:46;101750.03;;;19.58;62.50
51229;BME280;37304;52.216;6.874;2022-07-15T19:58:46;101757.31;;;19.51;63.80
51229;BME280;37304;52.216;6.874;2022-07-15T20:03:47;101760.06;;;19.48;63.93
51229;BME280;37304;52.216;6.874;2022-07-15T20:08:47;101756.81;;;19.41;64.05
51229;BME280;37304;52.216;6.874;2022-07-15T20:13:47;101754.78;;;19.26;65.48
51229;BME280;37304;52.216;6.874;2022-07-15T20:18:48;101752.22;;;19.24;66.17
51229;BME280;37304;52.216;6.874;2022-07-15T20:23:49;101755.13;;;19.16;67.41
51229;BME280;37304;52.216;6.874;2022-07-15T20:28:49;101762.28;;;19.13;67.24
51229;BME280;37304;52.216;6.874;2022-07-15T20:33:50;101760.75;;;19.07;68.13
51229;BME280;37304;52.216;6.874;2022-07-15T20:38:51;101761.03;;;18.99;69.25
51229;BME280;37304;52.216;6.874;2022-07-15T20:43:51;101755.25;;;18.89;69.79
51229;BME280;37304;52.216;6.874;2022-07-15T20:48:52;101760.03;;;18.78;70.90
51229;BME280;37304;52.216;6.874;2022-07-15T20:53:52;101759.06;;;18.81;71.22
51229;BME280;37304;52.216;6.874;2022-07-15T20:58:52;101764.47;;;18.76;71.55
51229;BME280;37304;52.216;6.874;2022-07-15T21:03:53;101774.31;;;18.71;72.07
51229;BME280;37304;52.216;6.874;2022-07-15T21:08:53;101772.03;;;18.61;72.32
51229;BME280;37304;52.216;6.874;2022-07-15T21:13:54;101783.94;;;18.46;72.06
51229;BME280;37304;52.216;6.874;2022-07-15T21:18:55;101761.56;;;18.34;67.74
51229;BME280;37304;52.216;6.874;2022-07-15T21:23:55;101755.53;;;18.31;69.18
51229;BME280;37304;52.216;6.874;2022-07-15T21:28:56;101747.06;;;18.23;68.29
51229;BME280;37304;52.216;6.874;2022-07-15T21:33:56;101749.19;;;18.11;67.87
51229;BME280;37304;52.216;6.874;2022-07-15T21:38:57;101742.84;;;18.17;66.24
51229;BME280;37304;52.216;6.874;2022-07-15T21:43:57;101742.13;;;18.13;66.92
51229;BME280;37304;52.216;6.874;2022-07-15T21:48:57;101739.59;;;18.10;67.40
51229;BME280;37304;52.216;6.874;2022-07-15T21:53:58;101737.81;;;18.11;67.47
51229;BME280;37304;52.216;6.874;2022-07-15T21:59:01;101748.44;;;18.08;67.08
51229;BME280;37304;52.216;6.874;2022-07-15T22:04:02;101754.72;;;18.03;68.57
51229;BME280;37304;52.216;6.874;2022-07-15T22:09:06;101747.72;;;18.02;69.20
51229;BME280;37304;52.216;6.874;2022-07-15T22:14:06;101749.69;;;17.96;68.87
51229;BME280;37304;52.216;6.874;2022-07-15T22:19:07;101746.34;;;17.90;71.01
51229;BME280;37304;52.216;6.874;2022-07-15T22:24:07;101753.47;;;17.87;72.02
51229;BME280;37304;52.216;6.874;2022-07-15T22:29:08;101752.75;;;17.82;72.58
51229;BME280;37304;52.216;6.874;2022-07-15T22:34:08;101742.56;;;17.72;73.18
51229;BME280;37304;52.216;6.874;2022-07-15T22:39:08;101741.84;;;17.67;74.00
51229;BME280;37304;52.216;6.874;2022-07-15T22:44:10;101732.59;;;17.54;74.63
51229;BME280;37304;52.216;6.874;2022-07-15T22:49:10;101729.13;;;17.53;73.72
51229;BME280;37304;52.216;6.874;2022-07-15T22:54:10;101719.16;;;17.36;75.09
51229;BME280;37304;52.216;6.874;2022-07-15T22:59:11;101731.72;;;17.26;77.15
51229;BME280;37304;52.216;6.874;2022-07-15T23:04:13;101728.41;;;17.20;78.10
51229;BME280;37304;52.216;6.874;2022-07-15T23:09:13;101735.47;;;17.17;78.74
51229;BME280;37304;52.216;6.874;2022-07-15T23:14:13;101743.38;;;17.16;79.08
51229;BME280;37304;52.216;6.874;2022-07-15T23:19:14;101722.56;;;17.10;80.33
51229;BME280;37304;52.216;6.874;2022-07-15T23:24:14;101729.63;;;17.08;80.62
51229;BME280;37304;52.216;6.874;2022-07-15T23:29:15;101731.69;;;16.98;81.29
51229;BME280;37304;52.216;6.874;2022-07-15T23:34:15;101717.00;;;16.91;81.87
51229;BME280;37304;52.216;6.874;2022-07-15T23:39:15;101722.25;;;16.91;82.23
51229;BME280;37304;52.216;6.874;2022-07-15T23:44:16;101727.50;;;16.91;82.24
51229;BME280;37304;52.216;6.874;2022-07-15T23:49:16;101709.06;;;16.92;82.33
51229;BME280;37304;52.216;6.874;2022-07-15T23:54:18;101717.94;;;16.88;81.37
51229;BME280;37304;52.216;6.874;2022-07-15T23:59:18;101720.69;;;16.83;80.93
